Time;durP1;ratioP1;P1;durP2;ratioP2;P2;SDS_P1;SDS_P2;PMS_P1;PMS_P2;Temp;Humidity;BMP_temperature;BMP_pressure;BME280_temperature;BME280_humidity;BME280_pressure;Samples;Min_cycle;Max_cycle;Signal;HPM_P1;HPM_P2
2022/03/15 00:09:43;;;;;;;98.75;10.25;;;13.10;69.30;;;;;;20669757;28;20054;-60
2022/03/15 00:19:44;;;;;;;84.85;9.38;;;13.10;69.30;;;;;;20669520;28;20491;-60
2022/03/15 00:29:46;;;;;;;90.28;10.02;;;13.00;69.40;;;;;;20668565;28;20062;-60
2022/03/15 00:39:49;;;;;;;83.88;9.43;;;13.00;69.50;;;;;;20667681;28;20042;-60
2022/03/15 00:49:50;;;;;;;93.07;9.15;;;13.00;69.20;;;;;;20667604;28;20058;-59
2022/03/15 00:59:52;;;;;;;71.18;8.98;;;13.00;69.20;;;;;;20666766;28;20054;-60
2022/03/15 01:09:53;;;;;;;106.57;11.60;;;13.00;69.00;;;;;;20667044;28;20407;-59
2022/03/15 01:19:56;;;;;;;109.40;11.80;;;13.00;69.10;;;;;;20666139;28;20542;-59
2022/03/15 01:29:58;;;;;;;95.32;11.50;;;13.10;69.00;;;;;;20665425;28;20059;-60
2022/03/15 01:40:03;;;;;;;102.00;11.40;;;13.20;68.70;;;;;;20665618;28;20358;-60
2022/03/15 01:50:05;;;;;;;125.75;13.35;;;13.20;68.60;;;;;;20667526;28;20221;-61
2022/03/15 02:00:08;;;;;;;151.75;15.27;;;13.20;68.60;;;;;;20679108;28;20141;-59
2022/03/15 02:10:10;;;;;;;121.10;15.18;;;13.30;68.30;;;;;;20678907;28;20050;-59
2022/03/15 02:20:13;;;;;;;153.30;17.90;;;13.40;67.80;;;;;;20677977;28;20530;-59
2022/03/15 02:30:22;;;;;;;163.77;16.60;;;13.40;67.40;;;;;;20677988;28;20050;-61
2022/03/15 02:40:41;;;;;;;155.80;17.08;;;13.50;67.10;;;;;;20676962;28;20399;-59
2022/03/15 02:50:59;;;;;;;155.07;17.00;;;13.50;67.10;;;;;;20677299;28;20054;-60
2022/03/15 03:01:03;;;;;;;172.45;16.98;;;13.50;67.00;;;;;;20676094;28;20057;-59
2022/03/15 03:11:10;;;;;;;154.13;17.58;;;13.50;66.80;;;;;;20674815;28;20142;-59
2022/03/15 03:21:20;;;;;;;165.68;18.33;;;13.60;66.50;;;;;;20675027;28;20184;-59
2022/03/15 03:31:22;;;;;;;178.38;20.33;;;13.70;66.30;;;;;;20672970;28;20401;-60
2022/03/15 03:41:32;;;;;;;181.57;21.97;;;13.70;66.00;;;;;;20672128;28;20503;-59
2022/03/15 03:51:35;;;;;;;188.02;22.83;;;13.80;65.70;;;;;;20671150;28;20054;-59
2022/03/15 04:01:38;;;;;;;188.07;21.55;;;13.90;65.00;;;;;;20686022;28;20050;-60
2022/03/15 04:11:44;;;;;;;219.15;23.90;;;13.90;64.70;;;;;;20668672;28;20046;-59
2022/03/15 04:21:47;;;;;;;205.20;24.33;;;14.00;64.10;;;;;;20668406;28;20042;-59
2022/03/15 04:31:49;;;;;;;206.93;22.42;;;14.00;63.70;;;;;;20668275;28;20467;-59
2022/03/15 04:41:52;;;;;;;203.95;22.08;;;14.20;63.10;;;;;;20667055;28;20069;-60
2022/03/15 04:51:58;;;;;;;205.10;23.15;;;14.20;62.50;;;;;;20667307;28;20486;-60
2022/03/15 05:02:00;;;;;;;195.50;25.92;;;14.20;62.60;;;;;;20666340;28;20047;-61
2022/03/15 05:12:01;;;;;;;212.55;25.02;;;14.20;62.80;;;;;;20666232;28;20112;-60
2022/03/15 05:22:03;;;;;;;196.40;24.45;;;14.20;62.60;;;;;;20665976;28;20058;-60
2022/03/15 05:32:06;;;;;;;180.82;23.27;;;14.20;62.50;;;;;;20680196;28;20085;-60
2022/03/15 05:42:11;;;;;;;198.68;22.50;;;14.20;62.20;;;;;;20681425;28;20101;-62
2022/03/15 05:52:13;;;;;;;199.05;23.25;;;14.30;61.60;;;;;;20681190;28;20490;-60
2022/03/15 06:02:14;;;;;;;217.63;24.92;;;14.30;61.20;;;;;;20680069;28;20047;-61
2022/03/15 06:12:16;;;;;;;203.52;22.45;;;14.30;60.80;;;;;;20679790;28;20060;-60
2022/03/15 06:22:18;;;;;;;176.70;22.52;;;14.40;60.20;;;;;;20677317;28;20050;-60
2022/03/15 06:32:20;;;;;;;170.05;20.75;;;14.40;60.10;;;;;;20673559;28;20502;-60
2022/03/15 06:42:22;;;;;;;169.95;21.75;;;14.30;60.10;;;;;;20672155;28;20137;-60
2022/03/15 06:52:23;;;;;;;169.65;20.40;;;14.30;60.00;;;;;;20672413;28;20077;-61
2022/03/15 07:02:25;;;;;;;160.32;20.73;;;14.30;60.10;;;;;;20671145;28;20047;-61
2022/03/15 07:12:27;;;;;;;180.95;21.77;;;14.40;60.00;;;;;;20670484;28;20069;-62
2022/03/15 07:22:29;;;;;;;190.67;21.93;;;14.40;59.70;;;;;;20628852;28;1262153;-62
2022/03/15 07:32:30;;;;;;;156.50;19.70;;;14.50;59.30;;;;;;20672964;28;20369;-61
2022/03/15 07:42:33;;;;;;;144.55;18.83;;;14.50;58.80;;;;;;20672350;28;20415;-61
2022/03/15 07:52:34;;;;;;;139.68;19.50;;;14.50;58.70;;;;;;20671788;28;20362;-62
2022/03/15 08:02:36;;;;;;;169.60;20.60;;;14.50;58.60;;;;;;20671483;28;20124;-61
2022/03/15 08:12:39;;;;;;;164.38;20.60;;;14.50;58.20;;;;;;20669722;28;20054;-61
2022/03/15 08:22:41;;;;;;;153.73;19.02;;;14.50;58.40;;;;;;20669212;28;20106;-61
2022/03/15 08:32:42;;;;;;;135.25;16.95;;;14.50;58.70;;;;;;20667720;28;20061;-61
2022/03/15 08:42:44;;;;;;;133.23;19.33;;;14.50;58.90;;;;;;20667876;28;20058;-61
2022/03/15 08:52:47;;;;;;;139.98;16.15;;;14.50;59.00;;;;;;20666859;28;20054;-59
2022/03/15 09:02:50;;;;;;;124.80;17.38;;;14.60;59.10;;;;;;20666708;28;20129;-60
2022/03/15 09:12:52;;;;;;;113.15;16.63;;;14.60;59.10;;;;;;20667021;28;20054;-59
2022/03/15 09:22:54;;;;;;;109.22;15.35;;;14.60;59.20;;;;;;20665587;28;20048;-60
2022/03/15 09:32:57;;;;;;;102.20;14.32;;;15.30;58.10;;;;;;20665785;28;20058;-62
2022/03/15 09:43:02;;;;;;;119.57;14.57;;;14.90;59.00;;;;;;20665794;28;20088;-62
2022/03/15 09:53:02;;;;;;;129.10;14.50;;;14.70;59.40;;;;;;20666709;28;20046;-61
2022/03/15 10:03:03;;;;;;;112.97;14.65;;;14.70;59.50;;;;;;20664849;28;20133;-61
2022/03/15 10:13:04;;;;;;;89.40;10.98;;;14.80;59.60;;;;;;20654995;28;20129;-56
2022/03/15 10:23:05;;;;;;;108.82;13.90;;;15.40;59.40;;;;;;20623402;28;20055;-69
2022/03/15 10:33:06;;;;;;;91.32;12.13;;;16.10;57.40;;;;;;20596094;28;20150;-59
2022/03/15 10:43:19;;;;;;;84.47;13.27;;;15.80;57.90;;;;;;20603923;28;20046;-57
2022/03/15 10:53:25;;;;;;;83.68;12.68;;;16.50;56.70;;;;;;20594593;28;20133;-58
2022/03/15 11:03:29;;;;;;;91.35;13.52;;;15.60;58.40;;;;;;20594140;28;20109;-62
2022/03/15 11:13:32;;;;;;;96.88;13.55;;;15.80;58.20;;;;;;20594921;28;20047;-58
2022/03/15 11:23:40;;;;;;;102.63;13.60;;;15.60;58.10;;;;;;20592409;28;20050;-61
2022/03/15 11:33:45;;;;;;;105.45;14.52;;;15.50;58.60;;;;;;20593001;28;20054;-62
2022/03/15 11:44:19;;;;;;;100.50;13.38;;;15.40;58.60;;;;;;20591601;28;20123;-60
2022/03/15 11:54:52;;;;;;;88.13;13.75;;;15.20;58.90;;;;;;20583008;28;20508;-61
2022/03/15 12:04:55;;;;;;;96.93;12.57;;;15.20;59.10;;;;;;20581381;28;20078;-56
2022/03/15 12:14:57;;;;;;;86.80;11.68;;;15.40;58.50;;;;;;20582387;28;20058;-58
2022/03/15 12:25:05;;;;;;;87.65;12.43;;;15.60;58.00;;;;;;20583008;28;20050;-58
2022/03/15 12:35:11;;;;;;;109.70;13.00;;;16.10;57.20;;;;;;20593983;28;20070;-69
2022/03/15 12:45:14;;;;;;;83.60;13.07;;;16.40;56.40;;;;;;20668818;28;20057;-65
2022/03/15 12:55:25;;;;;;;88.35;13.88;;;16.80;56.00;;;;;;20667621;28;20073;-61
2022/03/15 13:05:27;;;;;;;90.50;12.52;;;16.70;56.20;;;;;;20667516;28;20100;-60
2022/03/15 13:15:29;;;;;;;100.15;14.80;;;16.60;56.40;;;;;;20666265;28;20057;-62
2022/03/15 13:25:37;;;;;;;97.30;13.90;;;16.70;56.00;;;;;;20666869;28;20354;-61
2022/03/15 13:35:38;;;;;;;115.80;16.17;;;17.30;54.20;;;;;;20665278;28;20061;-64
2022/03/15 13:45:42;;;;;;;92.78;13.73;;;17.10;55.00;;;;;;20667385;28;20053;-62
2022/03/15 13:55:44;;;;;;;98.20;15.35;;;17.30;54.80;;;;;;20681965;28;20109;-61
2022/03/15 14:05:47;;;;;;;92.35;13.45;;;;;;;;;;20680916;28;20042;-63
2022/03/15 14:15:49;;;;;;;113.45;15.88;;;17.80;53.80;;;;;;20681762;28;20406;-61
2022/03/15 14:25:52;;;;;;;120.13;15.48;;;18.10;53.50;;;;;;20680414;28;20403;-63
2022/03/15 14:36:00;;;;;;;106.45;13.88;;;18.20;53.40;;;;;;20678120;28;20478;-61
2022/03/15 14:46:06;;;;;;;113.75;16.38;;;18.10;53.80;;;;;;20677205;28;20057;-63
2022/03/15 14:56:08;;;;;;;123.45;16.15;;;18.00;54.30;;;;;;20679250;28;20077;-62
2022/03/15 15:06:09;;;;;;;113.72;16.27;;;18.00;53.90;;;;;;20676734;28;20050;-62
2022/03/15 15:16:11;;;;;;;117.28;15.70;;;18.00;54.10;;;;;;20675053;28;20135;-62
2022/03/15 15:26:12;;;;;;;118.30;14.70;;;18.10;53.80;;;;;;20674543;28;20050;-63
2022/03/15 15:36:14;;;;;;;;;;;18.00;53.90;;;;;;20674185;28;20491;-61
2022/03/15 15:46:20;;;;;;;;;;;17.90;53.00;;;;;;20672377;28;20441;-62
2022/03/15 15:56:21;;;;;;;;;;;18.00;51.90;;;;;;20672652;28;20448;-62
2022/03/15 16:06:23;;;;;;;;;;;17.70;51.60;;;;;;20672456;28;19933;-61
2022/03/15 16:16:25;;;;;;;;;;;17.70;51.60;;;;;;20671636;28;19932;-62
2022/03/15 16:26:30;;;;;;;;;;;17.60;51.60;;;;;;20671451;28;19926;-63
2022/03/15 16:36:34;;;;;;;;;;;17.50;51.70;;;;;;20669439;28;20349;-64
2022/03/15 16:46:35;;;;;;;;;;;17.50;51.70;;;;;;20670147;28;20043;-62
2022/03/15 16:56:37;;;;;;;;;;;17.40;51.60;;;;;;20668807;28;19932;-62
2022/03/15 17:06:54;;;;;;;;;;;17.30;51.70;;;;;;20668845;28;19926;-61
2022/03/15 17:17:03;;;;;;;;;;;17.30;52.30;;;;;;20666580;28;19938;-60
2022/03/15 17:27:06;;;;;;;;;;;17.20;52.30;;;;;;20680627;28;19926;-62
2022/03/15 17:37:11;;;;;;;;;;;17.10;51.90;;;;;;20682638;28;19926;-60
2022/03/15 17:47:14;;;;;;;;;;;17.00;52.00;;;;;;20682280;28;19981;-60
2022/03/15 17:57:17;;;;;;;;;;;17.00;51.80;;;;;;20679975;28;19926;-65
2022/03/15 18:07:19;;;;;;;;;;;16.90;51.50;;;;;;20679214;28;19926;-62
2022/03/15 18:17:21;;;;;;;;;;;16.80;51.20;;;;;;20680570;28;19937;-60
2022/03/15 18:27:23;;;;;;;;;;;16.80;51.10;;;;;;20679261;28;19980;-60
2022/03/15 18:37:24;;;;;;;;;;;16.80;51.10;;;;;;20666910;28;19926;-62
2022/03/15 18:47:26;;;;;;;;;;;16.80;51.00;;;;;;20677391;28;20370;-62
2022/03/15 18:57:27;;;;;;;;;;;16.70;51.20;;;;;;20676168;28;19926;-60
2022/03/15 19:07:29;;;;;;;;;;;16.80;52.00;;;;;;20677289;28;19926;-61
2022/03/15 19:17:31;;;;;;;;;;;16.80;51.70;;;;;;20678063;28;20406;-61
2022/03/15 19:27:32;;;;;;;;;;;16.90;52.50;;;;;;20676033;28;20016;-66
2022/03/15 19:37:33;;;;;;;;;;;16.90;52.80;;;;;;20674709;28;20028;-59
2022/03/15 19:47:39;;;;;;;;;;;16.80;51.50;;;;;;20673271;28;20009;-60
2022/03/15 19:57:43;;;;;;;;;;;16.80;48.90;;;;;;20673474;28;19933;-58
2022/03/15 20:07:48;;;;;;;;;;;16.70;50.00;;;;;;20673062;28;20013;-58
2022/03/15 20:17:50;;;;;;;;;;;16.70;50.40;;;;;;20671782;28;20281;-58
2022/03/15 20:27:52;;;;;;;;;;;16.60;50.70;;;;;;20673428;28;20012;-58
2022/03/15 20:37:56;;;;;;;;;;;16.60;51.10;;;;;;20673912;28;19929;-58
2022/03/15 20:47:57;;;;;;;;;;;16.50;51.40;;;;;;20672963;28;19925;-59
2022/03/15 20:57:58;;;;;;;;;;;16.50;51.50;;;;;;20669595;28;19932;-60
2022/03/15 21:08:00;;;;;;;;;;;16.40;52.00;;;;;;20685664;28;20029;-62
2022/03/15 21:18:06;;;;;;;;;;;16.30;52.80;;;;;;20668390;28;19929;-59
2022/03/15 21:28:08;;;;;;;;;;;16.30;51.90;;;;;;20668448;28;19925;-59
2022/03/15 21:38:10;;;;;;;;;;;16.30;52.30;;;;;;20668628;28;20016;-60
2022/03/15 21:48:11;;;;;;;;;;;16.20;52.70;;;;;;20670981;28;19933;-62
2022/03/15 21:58:12;;;;;;;;;;;16.20;52.60;;;;;;20666833;28;19926;-59
2022/03/15 22:08:14;;;;;;;;;;;16.20;52.60;;;;;;20684690;28;19933;-59
2022/03/15 22:18:15;;;;;;;;;;;16.10;53.10;;;;;;20681502;28;19996;-60
2022/03/15 22:28:17;;;;;;;;;;;16.00;53.10;;;;;;20680983;28;19926;-59
2022/03/15 23:19:39;;;;;;;;;;;15.80;53.20;;;;;;20676252;28;19970;-59
2022/03/15 23:29:40;;;;;;;;;;;15.70;53.10;;;;;;20678069;28;19933;-61
2022/03/15 23:39:41;;;;;;;;;;;15.70;53.50;;;;;;20674689;28;19972;-59
2022/03/15 23:49:43;;;;;;;;;;;15.60;53.10;;;;;;20674569;28;19988;-59
2022/03/15 23:59:45;;;;;;;;;;;15.50;53.10;;;;;;20672991;28;19933;-59
